Time;durP1;ratioP1;P1;durP2;ratioP2;P2;SDS_P1;SDS_P2;PMS_P1;PMS_P2;Temp;Humidity;BMP_temperature;BMP_pressure;BME280_temperature;BME280_humidity;BME280_pressure;Samples;Min_cycle;Max_cycle;Signal;HPM_P1;HPM_P2
2022/07/02 00:00:48;;;;;;;0.43;0.43;;;;;;;27.93;41.53;95222.41;5031335;28;20201;-63
2022/07/02 00:03:15;;;;;;;0.50;0.50;;;;;;;27.98;41.25;95213.22;5019538;28;20205;-63
2022/07/02 00:05:47;;;;;;;0.63;0.63;;;;;;;27.76;41.29;95216.63;5042206;28;20221;-65
2022/07/02 00:08:18;;;;;;;0.53;0.53;;;;;;;27.96;41.35;95218.19;5015916;28;20190;-63
2022/07/02 00:10:47;;;;;;;7.83;1.80;;;;;;;28.08;40.59;95218.03;5038818;28;20225;-64
2022/07/02 00:13:14;;;;;;;0.37;0.37;;;;;;;28.07;40.38;95216.47;5010941;28;20201;-64
2022/07/02 00:15:42;;;;;;;0.50;0.50;;;;;;;28.10;40.43;95215.00;5038074;28;20222;-65
2022/07/02 00:18:10;;;;;;;2.17;1.03;;;;;;;28.01;39.44;95217.88;5017267;28;20197;-65
2022/07/02 00:20:41;;;;;;;0.77;0.73;;;;;;;27.69;40.17;95211.91;5031018;28;20201;-63
2022/07/02 00:23:09;;;;;;;0.90;0.70;;;;;;;27.61;40.84;95214.81;5044884;28;20235;-64
2022/07/02 00:25:54;;;;;;;0.40;0.40;;;;;;;27.13;42.20;95218.00;5042117;28;20662;-64
2022/07/02 00:28:24;;;;;;;1.47;1.37;;;;;;;27.22;41.90;95210.53;5037033;28;20197;-63
2022/07/02 00:30:52;;;;;;;0.60;0.60;;;;;;;27.39;41.39;95205.53;5037133;28;20224;-64
2022/07/02 00:33:22;;;;;;;0.73;0.73;;;;;;;27.52;41.19;95206.94;5021215;28;20195;-64
2022/07/02 00:35:49;;;;;;;0.90;0.90;;;;;;;27.38;41.56;95205.88;5028633;28;20201;-65
2022/07/02 00:38:16;;;;;;;1.43;1.13;;;;;;;27.43;41.94;95210.97;5025164;28;20206;-65
2022/07/02 00:40:44;;;;;;;0.40;0.40;;;;;;;27.46;42.29;95212.97;5029742;28;20223;-65
2022/07/02 00:43:11;;;;;;;0.50;0.50;;;;;;;27.03;42.83;95209.38;5035309;28;20243;-66
2022/07/02 00:45:38;;;;;;;0.40;0.40;;;;;;;27.34;42.38;95226.56;5042687;28;20189;-63
2022/07/02 00:48:05;;;;;;;0.40;0.40;;;;;;;27.23;42.38;95217.44;5043953;28;20803;-65
2022/07/02 00:50:32;;;;;;;1.23;1.10;;;;;;;25.99;44.81;95222.56;5021876;28;20215;-61
2022/07/02 00:52:59;;;;;;;0.97;0.83;;;;;;;26.94;42.95;95219.53;5020836;28;20539;-64
2022/07/02 00:55:25;;;;;;;1.60;1.43;;;;;;;27.19;42.52;95224.69;5009738;28;20279;-63
2022/07/02 00:57:52;;;;;;;3.40;1.57;;;;;;;27.50;41.87;95219.22;5036075;28;20254;-64
2022/07/02 01:00:20;;;;;;;0.40;0.40;;;;;;;27.37;41.99;95220.47;5028526;28;20189;-63
2022/07/02 01:02:47;;;;;;;1.07;0.97;;;;;;;27.30;42.07;95220.31;5042760;28;20278;-63
2022/07/02 01:05:18;;;;;;;0.30;0.30;;;;;;;27.23;42.55;95204.00;5022527;28;20273;-62
2022/07/02 01:10:16;;;;;;;11.07;1.33;;;;;;;27.21;42.51;95211.66;5042436;28;20194;-66
2022/07/02 01:10:43;;;;;;;0.50;0.50;;;;;;;27.50;41.90;95219.22;5037042;28;20525;-65
2022/07/02 01:13:11;;;;;;;0.40;0.40;;;;;;;27.04;42.37;95216.28;5010571;28;20267;-63
2022/07/02 01:15:39;;;;;;;0.47;0.47;;;;;;;27.24;41.45;95210.94;5035084;28;20699;-62
2022/07/02 01:18:06;;;;;;;0.50;0.50;;;;;;;27.17;41.24;95208.13;5036104;28;20201;-64
2022/07/02 01:20:33;;;;;;;3.97;2.23;;;;;;;27.02;41.21;95207.78;5034803;28;20193;-66
2022/07/02 01:23:00;;;;;;;1.60;1.37;;;;;;;27.21;40.93;95206.28;5022079;28;20200;-63
2022/07/02 01:25:27;;;;;;;1.90;1.80;;;;;;;26.95;41.32;95199.56;5029666;28;20353;-65
2022/07/02 01:27:54;;;;;;;1.30;1.20;;;;;;;27.13;41.08;95204.56;5037912;28;20193;-65
2022/07/02 01:30:21;;;;;;;0.83;0.53;;;;;;;27.13;40.98;95199.97;5026692;28;20188;-63
2022/07/02 01:32:48;;;;;;;0.37;0.37;;;;;;;26.76;41.53;95199.53;5034942;28;20286;-63
2022/07/02 01:35:14;;;;;;;0.83;0.57;;;;;;;27.08;41.39;95202.16;5035669;28;20192;-63
2022/07/02 01:37:41;;;;;;;2.80;1.53;;;;;;;27.03;41.33;95203.19;5049302;28;20683;-64
2022/07/02 01:40:09;;;;;;;0.33;0.33;;;;;;;27.06;41.55;95201.72;5039593;28;20205;-63
2022/07/02 01:42:36;;;;;;;0.63;0.63;;;;;;;27.13;41.18;95199.19;5020424;28;20262;-65
2022/07/02 01:45:04;;;;;;;0.53;0.53;;;;;;;27.07;41.37;95200.59;5046280;28;20197;-63
2022/07/02 01:47:31;;;;;;;1.10;1.00;;;;;;;26.97;41.45;95194.63;5030241;28;20232;-64
2022/07/02 01:49:58;;;;;;;0.70;0.70;;;;;;;27.03;42.17;95193.22;5026843;28;20271;-62
2022/07/02 01:52:26;;;;;;;0.60;0.60;;;;;;;27.09;42.34;95201.78;5033536;28;20279;-65
2022/07/02 01:54:53;;;;;;;0.60;0.60;;;;;;;27.16;42.14;95199.25;5030957;28;20907;-64
2022/07/02 01:57:20;;;;;;;0.47;0.47;;;;;;;27.19;42.53;95203.16;5028991;28;20262;-65
2022/07/02 01:59:48;;;;;;;0.70;0.70;;;;;;;27.10;42.35;95207.97;5033161;28;20225;-67
2022/07/02 02:02:15;;;;;;;0.63;0.63;;;;;;;27.01;42.62;95195.47;5037456;28;20242;-63
2022/07/02 02:04:42;;;;;;;0.47;0.47;;;;;;;27.02;43.17;95198.97;5047424;28;20615;-64
2022/07/02 02:07:10;;;;;;;1.33;1.23;;;;;;;26.99;43.23;95195.06;5022836;28;20227;-62
2022/07/02 02:09:37;;;;;;;5.43;1.57;;;;;;;27.02;43.22;95204.34;5021547;28;20270;-65
2022/07/02 02:12:04;;;;;;;1.10;1.10;;;;;;;27.02;43.67;95204.34;5053033;28;20285;-65
2022/07/02 02:14:31;;;;;;;0.70;0.70;;;;;;;27.02;43.56;95212.41;5039148;28;20191;-64
2022/07/02 02:16:59;;;;;;;0.80;0.80;;;;;;;26.94;43.78;95214.16;5033519;28;20209;-64
2022/07/02 02:19:26;;;;;;;0.70;0.70;;;;;;;27.03;43.39;95214.75;5015365;28;20221;-63
2022/07/02 02:21:53;;;;;;;1.07;0.97;;;;;;;27.01;43.26;95203.56;5032761;28;20672;-62
2022/07/02 02:24:20;;;;;;;0.60;0.60;;;;;;;26.86;43.86;95206.28;5046760;28;20741;-65
2022/07/02 02:26:46;;;;;;;1.50;1.07;;;;;;;26.70;43.73;95209.00;5040112;28;20246;-64
2022/07/02 02:29:13;;;;;;;1.57;1.13;;;;;;;26.78;43.52;95210.72;5040181;28;20742;-62
2022/07/02 02:31:40;;;;;;;1.27;1.17;;;;;;;26.69;43.77;95222.78;5046141;28;20575;-64
2022/07/02 02:34:07;;;;;;;0.77;0.77;;;;;;;26.55;44.05;95227.81;5033287;28;20739;-65
2022/07/02 02:36:34;;;;;;;0.90;0.83;;;;;;;26.66;44.00;95224.22;5043749;28;20198;-61
2022/07/02 02:39:01;;;;;;;1.53;0.77;;;;;;;26.81;43.40;95226.16;5022092;28;20189;-66
2022/07/02 02:41:28;;;;;;;0.67;0.67;;;;;;;26.68;43.43;95222.00;5048672;28;20198;-65
2022/07/02 02:43:55;;;;;;;0.77;0.70;;;;;;;26.65;43.00;95220.00;5052798;28;20197;-64
2022/07/02 02:46:22;;;;;;;7.43;1.07;;;;;;;26.41;43.65;95200.56;5052999;28;20200;-65
2022/07/02 02:48:49;;;;;;;0.37;0.37;;;;;;;26.39;43.77;95230.50;5025195;28;20188;-63
2022/07/02 02:51:15;;;;;;;1.33;1.17;;;;;;;26.40;43.48;95234.75;5027985;28;20256;-64
2022/07/02 02:53:43;;;;;;;8.80;1.07;;;;;;;26.66;43.09;95234.97;5016792;28;20202;-64
2022/07/02 02:56:11;;;;;;;0.50;0.50;;;;;;;26.59;43.47;95240.19;5018924;28;20194;-65
2022/07/02 02:58:39;;;;;;;0.47;0.47;;;;;;;26.52;43.19;95237.34;5040274;28;20260;-64
2022/07/02 03:01:06;;;;;;;0.50;0.50;;;;;;;26.57;43.39;95242.44;5037971;28;20200;-64
2022/07/02 03:03:33;;;;;;;1.27;0.97;;;;;;;26.56;43.10;95250.88;5047439;28;20197;-62
2022/07/02 03:06:00;;;;;;;0.77;0.77;;;;;;;26.57;43.04;95257.81;5022345;28;20197;-66
2022/07/02 03:08:27;;;;;;;0.40;0.40;;;;;;;26.54;43.50;95264.66;5013089;28;20209;-65
2022/07/02 03:10:53;;;;;;;0.77;0.77;;;;;;;26.61;43.46;95264.81;5044687;28;20204;-63
2022/07/02 03:13:20;;;;;;;0.50;0.50;;;;;;;26.56;43.84;95265.09;5052184;28;20699;-64
2022/07/02 03:16:04;;;;;;;2.13;1.33;;;;;;;26.36;44.24;95263.44;5047219;28;20203;-67
2022/07/02 03:18:31;;;;;;;0.30;0.30;;;;;;;26.36;44.19;95263.44;5029836;28;20750;-65
2022/07/02 03:20:58;;;;;;;0.93;0.93;;;;;;;26.48;43.91;95266.03;5037695;28;20592;-64
2022/07/02 03:23:26;;;;;;;0.80;0.80;;;;;;;26.49;43.99;95267.59;5036895;28;20202;-66
2022/07/02 03:25:52;;;;;;;1.13;1.00;;;;;;;26.45;44.38;95261.34;5025469;28;20232;-64
2022/07/02 03:28:19;;;;;;;0.73;0.73;;;;;;;26.58;43.66;95265.53;5032005;28;20197;-65
2022/07/02 03:30:46;;;;;;;0.60;0.60;;;;;;;26.55;44.15;95260.81;5020594;28;20186;-62
2022/07/02 03:33:13;;;;;;;1.80;1.70;;;;;;;26.47;44.43;95267.16;5014478;28;20217;-63
2022/07/02 03:35:40;;;;;;;4.10;1.13;;;;;;;26.47;44.63;95264.47;5031621;28;20581;-65
2022/07/02 03:38:06;;;;;;;1.20;1.10;;;;;;;26.37;45.03;95264.97;5031556;28;20204;-64
2022/07/02 03:40:33;;;;;;;0.60;0.57;;;;;;;26.42;44.63;95272.78;5039771;28;20671;-67
2022/07/02 03:43:00;;;;;;;0.57;0.57;;;;;;;26.42;43.91;95262.03;5036318;28;20630;-65
2022/07/02 03:45:28;;;;;;;0.23;0.23;;;;;;;26.14;44.36;95277.44;5051811;28;20197;-64
2022/07/02 03:47:54;;;;;;;0.43;0.43;;;;;;;25.78;44.82;95280.28;5026523;28;20746;-65
2022/07/02 03:50:21;;;;;;;1.10;1.00;;;;;;;25.36;45.68;95281.72;5030725;28;20197;-61
2022/07/02 03:53:06;;;;;;;0.50;0.50;;;;;;;25.71;45.19;95290.81;5045023;28;20768;-65
2022/07/02 03:55:33;;;;;;;0.60;0.60;;;;;;;25.71;45.00;95291.56;5033507;28;20275;-63
2022/07/02 03:57:59;;;;;;;0.43;0.43;;;;;;;25.64;45.57;95293.28;5041444;28;20321;-65
2022/07/02 04:00:26;;;;;;;0.93;0.83;;;;;;;25.80;45.10;95291.47;5044723;28;20271;-66
2022/07/02 04:02:53;;;;;;;0.70;0.70;;;;;;;25.90;44.93;95288.28;5031307;28;20205;-64
2022/07/02 04:05:20;;;;;;;0.73;0.73;;;;;;;25.98;44.71;95287.34;5045561;28;20263;-64
2022/07/02 04:07:47;;;;;;;2.13;1.17;;;;;;;26.14;44.27;95288.19;5032864;28;20186;-61
2022/07/02 04:10:13;;;;;;;0.73;0.73;;;;;;;26.09;44.51;95285.75;5032104;28;20203;-64
2022/07/02 04:12:40;;;;;;;1.93;0.93;;;;;;;26.15;44.32;95289.75;5032400;28;20244;-63
2022/07/02 04:15:08;;;;;;;2.73;0.80;;;;;;;26.15;44.69;95292.44;5022394;28;20189;-63
2022/07/02 04:17:35;;;;;;;0.50;0.50;;;;;;;26.44;44.25;95280.53;5019071;28;20211;-63
2022/07/02 04:20:02;;;;;;;0.37;0.37;;;;;;;26.56;44.29;95281.22;5044856;28;20204;-61
2022/07/02 04:22:29;;;;;;;0.80;0.77;;;;;;;26.44;44.84;95292.03;5042223;28;20201;-62
2022/07/02 04:24:56;;;;;;;0.80;0.80;;;;;;;26.65;44.78;95292.56;5042824;28;20647;-61
2022/07/02 04:27:23;;;;;;;1.27;1.17;;;;;;;26.62;44.87;95289.81;5035040;28;20291;-62
2022/07/02 04:29:49;;;;;;;4.50;1.13;;;;;;;26.76;44.42;95290.97;5026191;28;20221;-62
2022/07/02 04:32:16;;;;;;;0.80;0.80;;;;;;;26.86;44.24;95298.47;5040861;28;20294;-62
2022/07/02 04:34:43;;;;;;;1.13;1.10;;;;;;;27.00;43.92;95304.22;5037899;28;20188;-62
2022/07/02 04:37:10;;;;;;;0.50;0.50;;;;;;;26.87;44.60;95300.06;5018736;28;20235;-59
2022/07/02 04:39:37;;;;;;;0.67;0.67;;;;;;;26.92;44.27;95291.72;5036786;28;20200;-61
2022/07/02 04:42:04;;;;;;;2.73;0.90;;;;;;;26.96;44.34;95297.97;5042098;28;20198;-62
2022/07/02 04:44:31;;;;;;;0.60;0.60;;;;;;;26.84;44.70;95303.44;5026519;28;20246;-61
2022/07/02 04:46:58;;;;;;;1.73;1.23;;;;;;;26.86;44.09;95293.09;5031901;28;20236;-62
2022/07/02 04:49:25;;;;;;;0.80;0.80;;;;;;;26.73;44.83;95304.31;5035904;28;20196;-63
2022/07/02 04:51:52;;;;;;;1.33;1.10;;;;;;;26.76;44.97;95307.09;5034298;28;20204;-64
2022/07/02 04:54:19;;;;;;;0.40;0.40;;;;;;;26.86;44.54;95303.88;5033842;28;20301;-64
2022/07/02 04:56:48;;;;;;;0.60;0.60;;;;;;;26.98;44.45;95301.09;5015222;28;20201;-63
2022/07/02 04:59:14;;;;;;;1.23;1.13;;;;;;;27.11;44.31;95295.59;5028655;28;20707;-64
2022/07/02 05:01:41;;;;;;;0.50;0.50;;;;;;;26.74;45.97;95297.81;5042457;28;20223;-62
2022/07/02 05:04:09;;;;;;;0.93;0.83;;;;;;;27.06;46.01;95306.63;5037977;28;20228;-61
2022/07/02 05:06:36;;;;;;;1.53;1.30;;;;;;;27.22;45.50;95305.47;5047815;28;20200;-62
2022/07/02 05:09:03;;;;;;;1.57;1.47;;;;;;;27.20;45.35;95306.94;5019955;28;20198;-60
2022/07/02 05:11:31;;;;;;;0.70;0.70;;;;;;;27.28;45.03;95300.59;5048092;28;20207;-63
2022/07/02 05:13:57;;;;;;;1.20;1.03;;;;;;;27.32;44.18;95298.78;5048012;28;20216;-63
2022/07/02 05:16:24;;;;;;;1.43;1.33;;;;;;;26.88;46.99;95303.50;5047868;28;20216;-61
2022/07/02 05:18:51;;;;;;;1.80;1.20;;;;;;;27.33;45.38;95294.97;5036401;28;20258;-62
2022/07/02 05:21:18;;;;;;;1.47;1.37;;;;;;;27.45;44.82;95302.91;5017859;28;20240;-62
2022/07/02 05:23:45;;;;;;;1.10;1.00;;;;;;;27.57;44.98;95300.13;5038515;28;20204;-63
2022/07/02 05:26:12;;;;;;;0.90;0.87;;;;;;;27.41;44.98;95294.00;5026159;28;20241;-63
2022/07/02 05:28:39;;;;;;;2.90;1.77;;;;;;;27.12;46.06;95306.00;5024193;28;20765;-62
2022/07/02 05:31:08;;;;;;;1.60;1.20;;;;;;;27.38;45.58;95305.47;5047095;28;20212;-63
2022/07/02 05:33:35;;;;;;;0.37;0.37;;;;;;;27.50;45.14;95316.13;5047506;28;20679;-63
2022/07/02 05:36:03;;;;;;;1.13;0.90;;;;;;;27.29;46.59;95323.69;5034610;28;20771;-64
2022/07/02 05:38:29;;;;;;;0.93;0.93;;;;;;;27.22;47.87;95320.84;5014139;28;20197;-63
2022/07/02 05:40:56;;;;;;;0.47;0.47;;;;;;;26.64;46.76;95312.50;5027033;28;20741;-63
2022/07/02 05:43:23;;;;;;;0.83;0.80;;;;;;;27.30;46.42;95322.56;5017022;28;20228;-63
2022/07/02 05:45:50;;;;;;;1.53;1.23;;;;;;;27.02;46.72;95320.75;5047335;28;20199;-63
2022/07/02 05:48:17;;;;;;;1.43;1.33;;;;;;;27.46;46.01;95326.03;5017458;28;20206;-60
2022/07/02 05:50:44;;;;;;;1.67;1.23;;;;;;;27.72;44.73;95323.50;5035647;28;20586;-64
2022/07/02 05:53:12;;;;;;;1.07;1.07;;;;;;;27.69;45.23;95325.00;5047197;28;20215;-62
2022/07/02 05:55:39;;;;;;;1.80;1.33;;;;;;;26.91;48.36;95324.34;5028111;28;20256;-67
2022/07/02 05:58:06;;;;;;;0.60;0.60;;;;;;;26.90;47.63;95314.69;5036113;28;20211;-63
2022/07/02 06:00:33;;;;;;;0.37;0.37;;;;;;;27.26;46.64;95321.69;5016576;28;20193;-65
2022/07/02 06:03:00;;;;;;;0.60;0.60;;;;;;;27.60;45.53;95320.94;5027312;28;20189;-62
2022/07/02 06:08:12;;;;;;;1.00;0.93;;;;;;;28.16;44.35;95319.41;5027209;28;20547;-65
2022/07/02 06:10:39;;;;;;;0.63;0.63;;;;;;;27.64;44.97;95321.81;5021784;28;20204;-63
2022/07/02 06:13:06;;;;;;;0.70;0.70;;;;;;;28.20;43.50;95317.56;5018333;28;20687;-66
2022/07/02 06:15:33;;;;;;;1.03;0.80;;;;;;;27.89;44.38;95323.09;5034992;28;20226;-66
2022/07/02 06:18:01;;;;;;;2.17;1.10;;;;;;;28.38;42.94;95318.69;5045989;28;20247;-67
2022/07/02 06:20:28;;;;;;;2.13;1.73;;;;;;;27.75;44.56;95312.03;5036759;28;20671;-65
2022/07/02 06:22:55;;;;;;;1.00;1.00;;;;;;;27.80;44.86;95311.75;5030507;28;20201;-66
2022/07/02 06:25:22;;;;;;;1.27;1.17;;;;;;;28.25;42.59;95319.97;5038244;28;20237;-64
2022/07/02 06:27:49;;;;;;;1.30;1.20;;;;;;;28.37;42.77;95310.94;5041330;28;20217;-64
2022/07/02 06:30:16;;;;;;;1.20;0.80;;;;;;;28.67;41.94;95323.47;5020240;28;20688;-66
2022/07/02 06:32:43;;;;;;;0.47;0.43;;;;;;;28.70;41.49;95319.28;5024582;28;20999;-65
2022/07/02 06:35:11;;;;;;;1.53;0.90;;;;;;;28.16;43.77;95327.50;5021588;28;20264;-64
2022/07/02 06:37:38;;;;;;;0.77;0.77;;;;;;;28.17;42.82;95323.69;5016400;28;20201;-64
2022/07/02 06:40:06;;;;;;;2.83;0.60;;;;;;;28.22;42.54;95325.28;5037668;28;20204;-64
2022/07/02 06:42:33;;;;;;;0.73;0.67;;;;;;;28.55;41.90;95323.66;5007655;28;20763;-65
2022/07/02 06:45:01;;;;;;;9.57;2.50;;;;;;;28.88;42.02;95325.75;5034966;28;20270;-64
2022/07/02 06:47:28;;;;;;;0.67;0.67;;;;;;;28.81;43.00;95323.69;5014977;28;20232;-65
2022/07/02 06:49:57;;;;;;;1.33;1.13;;;;;;;28.82;42.50;95322.56;5027320;28;20201;-65
2022/07/02 06:52:25;;;;;;;1.20;1.13;;;;;;;28.39;43.93;95322.94;5013226;28;20691;-66
2022/07/02 06:54:52;;;;;;;0.53;0.53;;;;;;;28.61;43.86;95316.03;5032796;28;20229;-64
2022/07/02 06:57:18;;;;;;;1.70;1.50;;;;;;;28.65;43.37;95317.66;5017000;28;20205;-64
2022/07/02 06:59:52;;;;;;;2.30;2.13;;;;;;;29.30;42.77;95325.66;5030519;28;20204;-62
2022/07/02 07:02:20;;;;;;;8.77;5.70;;;;;;;29.56;41.70;95339.16;5021655;28;20194;-65
2022/07/02 07:04:47;;;;;;;1.13;0.90;;;;;;;29.92;41.51;95336.59;5012641;28;20210;-65
2022/07/02 07:07:15;;;;;;;0.87;0.87;;;;;;;29.24;42.38;95335.97;5042985;28;20664;-65
2022/07/02 07:09:41;;;;;;;1.33;0.83;;;;;;;29.82;41.44;95331.81;5017596;28;20672;-64
2022/07/02 07:12:10;;;;;;;1.27;1.10;;;;;;;30.06;40.40;95330.56;5043552;28;20200;-64
2022/07/02 07:14:37;;;;;;;1.83;1.73;;;;;;;29.97;40.05;95332.75;5036120;28;20207;-66
2022/07/02 07:17:04;;;;;;;0.60;0.60;;;;;;;30.01;39.81;95339.00;5027140;28;20284;-65
2022/07/02 07:19:31;;;;;;;1.43;1.33;;;;;;;29.53;42.03;95340.66;5027180;28;20197;-66
2022/07/02 07:21:58;;;;;;;3.77;1.87;;;;;;;29.41;42.71;95342.78;5030431;28;20201;-64
2022/07/02 07:24:25;;;;;;;1.67;1.33;;;;;;;30.00;40.24;95348.22;5030491;28;20197;-69
2022/07/02 07:26:52;;;;;;;0.70;0.70;;;;;;;30.16;39.55;95340.72;5038379;28;20455;-70
2022/07/02 07:29:19;;;;;;;1.73;1.60;;;;;;;30.24;39.65;95330.75;5021182;28;20252;-69
2022/07/02 07:31:46;;;;;;;6.13;3.57;;;;;;;30.48;39.51;95346.50;5023724;28;20279;-67
2022/07/02 07:34:13;;;;;;;4.47;4.07;;;;;;;30.45;38.86;95341.84;5023097;28;20229;-66
2022/07/02 07:36:41;;;;;;;2.27;1.93;;;;;;;30.53;38.81;95338.06;5021057;28;20220;-67
2022/07/02 07:39:08;;;;;;;1.67;1.57;;;;;;;30.64;38.87;95333.50;5038287;28;20211;-66
2022/07/02 07:41:35;;;;;;;1.40;1.30;;;;;;;30.14;40.36;95334.13;5016003;28;20198;-67
2022/07/02 07:44:03;;;;;;;1.63;1.33;;;;;;;30.28;40.35;95340.50;5039559;28;20204;-67
2022/07/02 07:46:30;;;;;;;2.13;2.00;;;;;;;30.19;42.53;95329.16;5021537;28;20189;-67
2022/07/02 07:48:58;;;;;;;1.30;1.23;;;;;;;30.50;41.14;95323.34;5041934;28;20208;-67
2022/07/02 07:51:26;;;;;;;2.37;2.00;;;;;;;30.53;40.65;95319.88;5028950;28;20203;-67
2022/07/02 07:53:53;;;;;;;1.20;0.97;;;;;;;30.74;40.65;95333.63;5016668;28;20224;-66
2022/07/02 07:56:20;;;;;;;2.40;2.20;;;;;;;31.24;39.24;95339.50;5014481;28;20206;-66
2022/07/02 07:58:48;;;;;;;1.90;1.80;;;;;;;31.40;38.50;95332.66;5024576;28;20197;-67
2022/07/02 08:01:15;;;;;;;1.40;1.33;;;;;;;31.31;39.56;95328.69;5022152;28;20230;-67
2022/07/02 08:03:42;;;;;;;2.47;1.73;;;;;;;30.80;41.87;95342.19;5015456;28;20205;-68
2022/07/02 08:06:09;;;;;;;2.00;1.00;;;;;;;30.84;41.99;95322.16;5017711;28;20636;-68
2022/07/02 08:08:36;;;;;;;2.40;2.20;;;;;;;31.29;40.21;95331.78;5016532;28;20667;-71
2022/07/02 08:11:03;;;;;;;0.87;0.87;;;;;;;30.93;40.34;95335.34;5044174;28;20262;-67
2022/07/02 08:13:31;;;;;;;0.87;0.83;;;;;;;30.94;39.90;95336.13;5049184;28;20850;-70
2022/07/02 08:16:02;;;;;;;1.47;1.00;;;;;;;31.58;39.35;95335.47;5036142;28;20205;-69
2022/07/02 08:18:29;;;;;;;1.47;1.37;;;;;;;31.93;38.80;95333.00;5020588;28;20202;-68
2022/07/02 08:20:56;;;;;;;3.27;3.00;;;;;;;32.03;38.60;95339.59;5023600;28;20185;-66
2022/07/02 08:23:23;;;;;;;7.43;2.70;;;;;;;31.39;38.50;95336.53;5028833;28;20633;-70
2022/07/02 08:25:50;;;;;;;2.93;2.43;;;;;;;31.61;37.77;95334.72;5015540;28;20233;-67
2022/07/02 08:28:17;;;;;;;2.03;1.43;;;;;;;32.30;37.60;95330.78;5033289;28;20307;-69
2022/07/02 08:30:45;;;;;;;1.33;1.23;;;;;;;32.54;37.57;95338.25;5037604;28;20735;-67
2022/07/02 08:33:15;;;;;;;2.43;2.23;;;;;;;32.53;36.83;95335.94;5014867;28;20302;-70
2022/07/02 08:35:43;;;;;;;1.57;1.47;;;;;;;32.52;37.88;95337.06;5039072;28;20250;-66
2022/07/02 08:38:10;;;;;;;1.43;1.33;;;;;;;32.78;37.52;95334.81;5046593;28;20227;-67
2022/07/02 08:40:41;;;;;;;1.57;0.93;;;;;;;32.57;33.52;95334.75;5028743;28;20242;-67
2022/07/02 08:43:10;;;;;;;1.43;1.33;;;;;;;32.83;34.11;95335.59;5014780;28;20202;-65
2022/07/02 08:45:39;;;;;;;5.90;3.93;;;;;;;32.46;34.89;95339.38;5021333;28;20202;-66
2022/07/02 08:48:07;;;;;;;1.43;1.30;;;;;;;31.76;35.11;95349.91;5009084;28;20260;-67
2022/07/02 08:50:36;;;;;;;1.17;1.10;;;;;;;32.56;34.55;95344.06;5034936;28;20196;-66
2022/07/02 08:53:06;;;;;;;3.30;1.57;;;;;;;32.99;33.92;95338.72;5048202;28;20216;-66
2022/07/02 08:55:34;;;;;;;0.87;0.83;;;;;;;32.65;35.00;95344.47;5030599;28;20697;-67
2022/07/02 08:58:02;;;;;;;1.00;0.90;;;;;;;32.79;35.43;95341.03;5037966;28;20204;-68
2022/07/02 09:00:29;;;;;;;1.30;1.27;;;;;;;33.14;35.13;95348.44;5021284;28;20209;-63
2022/07/02 09:02:58;;;;;;;1.83;1.73;;;;;;;33.47;34.54;95359.69;5008720;28;20202;-68
2022/07/02 09:05:27;;;;;;;0.53;0.53;;;;;;;32.89;35.03;95350.31;5036153;28;20581;-66
2022/07/02 09:07:55;;;;;;;1.63;1.53;;;;;;;33.24;34.01;95344.94;5015745;28;20212;-64
2022/07/02 09:10:24;;;;;;;2.90;2.70;;;;;;;33.59;33.42;95345.72;5019827;28;20212;-62
2022/07/02 09:12:53;;;;;;;1.20;1.20;;;;;;;33.28;33.60;95343.00;5016705;28;20194;-66
2022/07/02 09:15:21;;;;;;;0.90;0.90;;;;;;;33.25;34.09;95341.81;5027530;28;20232;-67
2022/07/02 09:17:48;;;;;;;0.77;0.77;;;;;;;33.31;34.28;95340.28;5027440;28;20208;-65
2022/07/02 09:20:14;;;;;;;2.50;1.63;;;;;;;33.67;34.05;95335.56;5026852;28;20204;-65
2022/07/02 09:22:45;;;;;;;2.07;1.90;;;;;;;33.71;33.41;95325.47;5027679;28;20205;-63
2022/07/02 09:25:17;;;;;;;0.70;0.70;;;;;;;33.73;31.88;95331.28;5027329;28;20602;-65
2022/07/02 09:27:45;;;;;;;0.70;0.70;;;;;;;33.98;31.38;95331.25;5027516;28;20205;-64
2022/07/02 09:30:16;;;;;;;0.70;0.70;;;;;;;33.55;31.28;95327.84;5027316;28;20727;-64
2022/07/02 09:33:28;;;;;;;0.80;0.80;;;;;;;33.34;31.55;95317.00;5027836;28;20742;-64
2022/07/02 09:35:39;;;;;;;0.90;0.90;;;;;;;33.86;31.57;95316.13;5015410;28;20213;-66
2022/07/02 09:38:11;;;;;;;0.53;0.53;;;;;;;33.86;31.57;95332.44;5041245;28;20658;-64
2022/07/02 09:40:50;;;;;;;2.43;1.63;;;;;;;34.19;30.47;95318.34;5041893;28;20197;-65
2022/07/02 09:43:32;;;;;;;1.73;1.63;;;;;;;34.30;31.29;95319.06;5041757;28;20675;-63
2022/07/02 09:46:01;;;;;;;0.50;0.50;;;;;;;34.51;33.00;95318.97;5031819;28;20194;-62
2022/07/02 09:48:29;;;;;;;2.07;1.77;;;;;;;34.71;32.79;95325.47;5009626;28;20202;-65
2022/07/02 09:51:03;;;;;;;0.90;0.90;;;;;;;34.65;30.60;95326.28;5033913;28;20654;-65
2022/07/02 09:53:30;;;;;;;2.73;0.97;;;;;;;34.32;29.46;95319.44;5041524;28;20247;-61
2022/07/02 09:55:57;;;;;;;1.20;1.17;;;;;;;34.12;30.00;95321.09;5016265;28;20205;-69
2022/07/02 09:58:25;;;;;;;4.13;2.07;;;;;;;34.38;30.29;95326.00;5044544;28;20250;-61
2022/07/02 10:00:54;;;;;;;1.70;1.40;;;;;;;34.19;30.98;95312.91;5047988;28;20197;-61
2022/07/02 10:03:21;;;;;;;2.90;1.53;;;;;;;35.04;31.05;95305.00;5016100;28;20197;-64
2022/07/02 10:05:50;;;;;;;1.27;1.17;;;;;;;35.24;30.90;95306.00;5018437;28;20198;-65
2022/07/02 10:08:18;;;;;;;0.50;0.50;;;;;;;35.09;31.90;95309.25;5008130;28;20201;-65
2022/07/02 10:10:45;;;;;;;1.17;0.93;;;;;;;35.18;30.88;95293.97;5022434;28;20204;-63
2022/07/02 10:13:14;;;;;;;1.20;1.10;;;;;;;35.25;29.35;95295.88;5020475;28;20730;-60
2022/07/02 10:15:52;;;;;;;0.70;0.70;;;;;;;35.35;30.03;95295.78;5034614;28;20188;-63
2022/07/02 10:18:19;;;;;;;0.60;0.60;;;;;;;35.21;29.34;95295.91;5015014;28;20201;-63
2022/07/02 10:20:47;;;;;;;13.33;1.70;;;;;;;35.15;28.71;95296.75;5040904;28;20200;-62
2022/07/02 10:23:14;;;;;;;1.13;0.97;;;;;;;35.19;29.90;95292.81;5036666;28;20206;-62
2022/07/02 10:25:43;;;;;;;0.70;0.70;;;;;;;34.94;28.91;95286.03;5007854;28;20233;-63
2022/07/02 10:28:10;;;;;;;1.00;0.97;;;;;;;35.30;29.74;95287.25;5029626;28;20203;-61
2022/07/02 10:30:37;;;;;;;0.83;0.77;;;;;;;35.75;28.61;95268.91;5026879;28;20202;-62
2022/07/02 10:33:38;;;;;;;0.90;0.90;;;;;;;35.74;29.45;95279.03;5024930;28;20201;-64
2022/07/02 10:36:09;;;;;;;0.73;0.73;;;;;;;35.93;29.07;95278.44;5037948;28;20250;-68
2022/07/02 10:38:38;;;;;;;1.07;0.87;;;;;;;36.01;30.44;95282.63;5023255;28;20188;-62
2022/07/02 10:41:09;;;;;;;2.77;1.20;;;;;;;36.18;30.01;95270.72;5026145;28;20625;-66
2022/07/02 10:43:38;;;;;;;4.60;3.93;;;;;;;36.26;28.92;95272.16;5049117;28;20203;-64
2022/07/02 10:46:13;;;;;;;1.97;1.33;;;;;;;36.07;29.60;95264.66;5050806;28;20258;-70
2022/07/02 10:48:50;;;;;;;0.90;0.90;;;;;;;34.59;29.55;95281.59;5040626;28;20213;-69
2022/07/02 10:51:29;;;;;;;0.67;0.67;;;;;;;35.63;30.13;95272.94;5024116;28;20201;-65
2022/07/02 10:54:20;;;;;;;2.80;2.60;;;;;;;35.67;29.26;95276.41;5037373;28;20564;-66
2022/07/02 10:56:54;;;;;;;2.73;1.30;;;;;;;35.89;28.86;95272.28;5022606;28;20193;-68
2022/07/02 10:59:22;;;;;;;2.90;2.40;;;;;;;35.73;28.81;95277.47;5050740;28;20548;-65
2022/07/02 11:02:02;;;;;;;0.97;0.97;;;;;;;34.87;29.02;95275.97;5041764;28;20252;-64
2022/07/02 11:04:29;;;;;;;0.67;0.60;;;;;;;34.56;30.28;95285.88;5023742;28;20206;-71
2022/07/02 11:07:23;;;;;;;1.47;1.30;;;;;;;34.79;29.56;95279.13;5018598;28;20268;-67
2022/07/02 11:09:51;;;;;;;1.23;0.77;;;;;;;35.16;28.00;95266.38;5025145;28;20201;-65
2022/07/02 11:12:42;;;;;;;1.43;1.17;;;;;;;35.20;29.47;95261.66;5025797;28;20596;-68
2022/07/02 11:15:24;;;;;;;2.00;1.90;;;;;;;34.93;100.00;95042.25;5026851;28;20230;-71
2022/07/02 11:17:55;;;;;;;1.07;1.07;;;;;;;-140.05;100.00;61859.38;5028036;28;20291;-69
2022/07/02 11:20:25;;;;;;;2.10;1.93;;;;;;;-140.05;100.00;61859.38;5021249;28;20680;-71
2022/07/02 11:22:55;;;;;;;1.00;0.93;;;;;;;-140.05;100.00;61859.38;5029784;28;20193;-68
2022/07/02 11:25:22;;;;;;;0.97;0.97;;;;;;;-140.05;100.00;61859.38;5018569;28;20251;-69
2022/07/02 11:28:00;;;;;;;2.03;1.90;;;;;;;-140.05;100.00;61859.38;5024055;28;20202;-71
2022/07/02 11:30:29;;;;;;;0.53;0.53;;;;;;;-140.05;100.00;61859.38;5018906;28;20201;-64
2022/07/02 11:32:56;;;;;;;0.97;0.97;;;;;;;-140.05;100.00;61859.38;5024069;28;20283;-65
2022/07/02 11:35:24;;;;;;;0.97;0.97;;;;;;;-140.05;100.00;61859.38;5022422;28;20229;-70
2022/07/02 11:38:00;;;;;;;0.50;0.50;;;;;;;-140.05;100.00;61859.38;5023409;28;20201;-66
2022/07/02 11:40:26;;;;;;;10.43;1.13;;;;;;;-140.05;100.00;61859.38;5028491;28;20201;-73